Santa Teresa Valley (237) Station Data

Red Flag Warning: No
Fire Weather Zone: 250
SDGE Region: Ramona
Lat/Lon: 33.069/-116.762

Observations

Time Wind Speed/Gust Temp(F) RH Fuel Moist Fuel Temp(F) Dewpt(F) Tmax(F) Tmin(F) Accum Precip 10-min Precip SL Press(mb)
6/22 4:50am 80 2 G 3 77° 29% - - 42° 80.5° 74.7° - - -
6/22 4:40am 83 3 G 3 77° 30% - - 43° 80.5° 74.7° - - -
6/22 4:30am 71 3 G 4 77° 30% - - 43° 80.5° 74.7° - - -
6/22 4:20am 90 2 G 3 77° 30% - - 43° 80.5° 74.7° - - -
6/22 4:10am 84 3 G 3 77° 29% - - 43° 80.5° 74.7° - - -
6/22 4:00am 84 3 G 4 77° 31% - - 44° 80.5° 74.7° - - -
6/22 3:50am 87 2 G 3 75° 34% - - 45° 80.5° 74.7° - - -
6/22 3:40am 86 3 G 4 76° 34% - - 45° 80.5° 74.9° - - -
6/22 3:30am 104 2 G 2 76° 33% - - 45° 80.5° 75.1° - - -
6/22 3:20am 91 2 G 3 77° 34% - - 46° 80.5° 75.1° - - -
6/22 3:10am 70 2 G 2 77° 34% - - 47° 80.5° 75.1° - - -
6/22 3:00am 96 2 G 2 76° 36% - - 47° 80.5° 75.1° - - -
6/22 2:50am 89 3 G 4 76° 36% - - 47° 80.5° 75.1° - - -
6/22 2:40am 77 3 G 3 76° 38% - - 48° 80.5° 75.1° - - -
6/22 2:30am 78 2 G 3 76° 43% - - 52° 80.5° 75.5° - - -
6/22 2:20am 97 1 G 2 77° 41% - - 51° 80.5° 75.5° - - -
6/22 2:10am 108 1 G 2 77° 41% - - 51° 80.5° 75.5° - - -
6/22 2:00am 67 2 G 3 76° 42% - - 51° 80.5° 75.5° - - -
6/22 1:50am 84 1 G 2 77° 39% - - 51° 80.5° 75.9° - - -
6/22 1:40am 132 0 G 1 77° 40% - - 50° 80.5° 75.9° - - -
6/22 1:30am 120 1 G 2 77° 38% - - 49° 80.5° 76.1° - - -
6/22 1:20am 129 1 G 1 78° 35% - - 48° 80.5° 77.1° - - -
6/22 1:10am 159 0 G 1 78° 34% - - 47° 80.5° 77.3° - - -
6/22 1:00am 108 1 G 1 78° 36% - - 49° 80.5° 77.6° - - -
6/22 12:50am 108 0 G 1 80° 37% - - 51° 80.5° 77.9° - - -
6/22 12:40am 58 1 G 2 79° 37% - - 51° 80° 77.9° - - -
6/22 12:30am 51 1 G 3 79° 34% - - 48° 79.9° 77.9° - - -
6/22 12:20am 79 3 G 4 78° 32% - - 46° 79.4° 77.9° - - -
6/22 12:10am 82 3 G 3 79° 32% - - 46° 79.4° 78° - - -
6/22 12:00am 77 2 G 3 78° 34% - - 48° 97.9° 75.8° - - -
6/21 11:50pm 57 2 G 3 79° 36% - - 49° 97.9° 75.8° - - -
6/21 11:40pm 53 3 G 4 79° 36% - - 50° 97.9° 75.8° - - -
6/21 11:30pm 72 2 G 3 77° 43% - - 53° 97.9° 75.8° - - -
6/21 11:20pm 80 2 G 2 77° 43% - - 53° 97.9° 75.8° - - -
6/21 11:10pm 56 1 G 2 78° 44% - - 54° 97.9° 75.8° - - -
6/21 11:00pm 294 1 G 2 79° 44% - - 55° 97.9° 75.8° - - -
6/21 10:50pm 293 2 G 3 79° 44% - - 55° 97.9° 75.8° - - -
6/21 10:40pm 280 1 G 2 79° 43% - - 55° 97.9° 75.8° - - -
6/21 10:30pm 24 1 G 1 79° 42% - - 54° 97.9° 75.8° - - -
6/21 10:20pm 112 1 G 2 78° 43% - - 54° 97.9° 75.8° - - -
6/21 10:10pm 133 0 G 2 80° 42% - - 55° 97.9° 75.8° - - -
6/21 10:00pm 0 0 G 0 80° 43% - - 55° 97.9° 75.8° - - -
6/21 9:50pm 262 1 G 2 81° 42% - - 55° 97.9° 75.8° - - -
6/21 9:40pm 296 1 G 2 82° 40% - - 55° 97.9° 75.8° - - -
6/21 9:30pm 39 3 G 4 83° 39% - - 55° 97.9° 75.8° - - -
6/21 9:20pm 46 3 G 5 82° 40% - - 55° 97.9° 75.8° - - -
6/21 9:10pm 58 3 G 5 82° 40% - - 55° 97.9° 75.8° - - -
6/21 9:00pm 52 3 G 5 81° 39% - - 54° 97.9° 75.8° - - -
6/21 8:50pm 53 2 G 3 81° 40% - - 55° 97.9° 75.8° - - -
6/21 8:40pm 50 1 G 3 82° 40% - - 55° 97.9° 75.8° - - -
6/21 8:30pm 52 3 G 4 82° 41% - - 56° 97.9° 75.8° - - -
6/21 8:20pm 47 3 G 4 82° 42% - - 57° 97.9° 75.8° - - -
6/21 8:10pm 55 3 G 4 82° 42% - - 57° 97.9° 75.8° - - -
6/21 8:00pm 70 1 G 3 82° 43% - - 58° 97.9° 75.8° - - -
6/21 7:50pm 0 0 G 0 83° 42% - - 57° 97.9° 75.8° - - -
6/21 7:40pm 243 0 G 2 83° 42% - - 58° 97.9° 75.8° - - -
6/21 7:30pm 251 2 G 4 83° 42% - - 58° 97.9° 75.8° - - -
6/21 7:20pm 260 4 G 5 84° 42% - - 58° 97.9° 75.8° - - -
6/21 7:10pm 247 3 G 6 85° 39% - - 58° 97.9° 75.8° - - -
6/21 7:00pm 253 4 G 7 86° 38% - - 57° 97.9° 75.8° - - -
6/21 6:50pm 256 5 G 8 86° 35% - - 56° 97.9° 75.8° - - -
6/21 6:40pm 258 5 G 8 87° 32% - - 54° 97.9° 75.8° - - -
6/21 6:30pm 251 4 G 8 88° 30% - - 53° 97.9° 75.8° - - -
6/21 6:20pm 267 5 G 7 89° 27% - - 51° 97.9° 75.8° - - -
6/21 6:10pm 278 5 G 8 89° 24% - - 48° 97.9° 75.8° - - -
6/21 6:00pm 268 5 G 9 90° 20% - - 44° 97.9° 75.8° - - -
6/21 5:50pm 268 6 G 11 90° 19% - - 43° 97.9° 75.8° - - -
6/21 5:40pm 259 8 G 11 90° 20% - - 43° 97.9° 75.8° - - -
6/21 5:30pm 270 7 G 12 90° 28% - - 52° 97.9° 75.8° - - -
6/21 5:20pm 268 8 G 12 89° 31% - - 55° 97.9° 75.8° - - -
6/21 5:10pm 260 7 G 10 90° 31% - - 56° 97.9° 75.8° - - -
6/21 5:00pm 254 7 G 12 91° 31% - - 56° 97.9° 75.8° - - -
6/21 4:50pm 252 6 G 12 92° 30% - - 56° 97.9° 75.8° - - -
6/21 4:40pm 254 6 G 10 92° 30% - - 56° 97.9° 75.8° - - -
6/21 4:30pm 257 7 G 12 92° 29% - - 56° 97.9° 75.8° - - -
6/21 4:20pm 249 6 G 12 93° 28% - - 55° 97.9° 75.8° - - -
6/21 4:10pm 255 6 G 11 93° 28% - - 55° 97.9° 75.8° - - -
6/21 4:00pm 257 8 G 12 93° 27% - - 55° 97.9° 75.8° - - -
6/21 3:50pm 248 7 G 13 94° 26% - - 54° 97.9° 75.8° - - -
6/21 3:40pm 251 7 G 13 94° 27% - - 55° 97.9° 75.8° - - -
6/21 3:30pm 262 6 G 11 94° 27% - - 54° 97.9° 75.8° - - -
6/21 3:20pm 258 8 G 12 94° 27% - - 55° 97.9° 75.8° - - -
6/21 3:10pm 259 8 G 13 94° 27% - - 55° 97.9° 75.8° - - -
6/21 3:00pm 260 7 G 13 95° 27% - - 56° 97.9° 75.8° - - -
6/21 2:50pm 261 7 G 12 94° 28% - - 57° 97.9° 75.8° - - -
6/21 2:40pm 266 8 G 13 94° 29% - - 57° 97.9° 75.8° - - -
6/21 2:30pm 254 8 G 14 95° 29% - - 58° 97.9° 75.8° - - -
6/21 2:20pm 262 8 G 14 95° 28% - - 57° 97.9° 75.8° - - -
6/21 2:10pm 266 8 G 16 96° 27% - - 56° 97.9° 75.8° - - -
6/21 2:00pm 262 7 G 13 96° 26% - - 56° 97.9° 75.8° - - -
6/21 1:50pm 254 8 G 15 97° 26% - - 57° 97.9° 75.8° - - -
6/21 1:40pm 247 7 G 13 97° 24% - - 54° 97.9° 75.8° - - -
6/21 1:30pm 248 7 G 12 96° 20% - - 49° 97.9° 75.8° - - -
6/21 1:20pm 259 8 G 13 96° 18% - - 46° 97.9° 75.8° - - -
6/21 1:10pm 249 7 G 12 96° 18% - - 46° 97.9° 75.8° - - -
6/21 1:00pm 249 6 G 12 97° 19% - - 47° 97.9° 75.8° - - -
6/21 12:50pm 256 7 G 13 96° 19% - - 48° 97.9° 75.8° - - -
6/21 12:40pm 257 6 G 11 96° 20% - - 49° 97.9° 75.8° - - -
6/21 12:30pm 245 6 G 11 97° 21% - - 50° 97.9° 75.8° - - -
6/21 12:20pm 251 6 G 10 97° 18% - - 46° 97.9° 75.8° - - -
6/21 12:10pm 256 6 G 13 96° 16% - - 43° 97.9° 75.8° - - -
6/21 12:00pm 254 6 G 13 96° 14% - - 40° 97.9° 75.8° - - -
6/21 11:50am 239 5 G 10 97° 14% - - 40° 97.9° 75.8° - - -
6/21 11:40am 229 4 G 8 97° 14% - - 40° 97.9° 75.8° - - -
6/21 11:30am 240 4 G 10 96° 15% - - 41° 97.4° 75.8° - - -
6/21 11:20am 230 5 G 10 96° 16% - - 42° 96.8° 75.8° - - -
6/21 11:10am 245 5 G 8 95° 15% - - 41° 95.9° 75.8° - - -
6/21 11:00am 254 5 G 12 95° 16% - - 41° 95.8° 75.8° - - -
6/21 10:50am 258 5 G 8 95° 17% - - 42° 95.4° 75.8° - - -
6/21 10:40am 235 4 G 8 95° 18% - - 44° 95.2° 75.8° - - -
6/21 10:30am 232 3 G 7 93° 19% - - 45° 94.6° 75.8° - - -
6/21 10:20am 251 4 G 8 93° 20% - - 46° 93.9° 75.8° - - -
6/21 10:10am 242 4 G 8 93° 21% - - 47° 93.9° 75.8° - - -
6/21 10:00am 252 4 G 8 92° 22% - - 47° 93.3° 75.8° - - -
6/21 9:50am 263 4 G 7 91° 22% - - 47° 92.8° 75.8° - - -
6/21 9:40am 246 4 G 6 92° 21% - - 46° 92.8° 75.8° - - -
6/21 9:30am 252 3 G 6 91° 21% - - 46° 92.5° 75.8° - - -
6/21 9:20am 257 4 G 6 90° 22% - - 47° 91.7° 75.8° - - -
6/21 9:10am 258 4 G 7 90° 23% - - 47° 91.7° 75.8° - - -
6/21 9:00am 261 4 G 7 90° 22% - - 46° 91.7° 75.8° - - -
6/21 8:50am 241 3 G 5 90° 22% - - 46° 91.7° 75.8° - - -
6/21 8:40am 257 3 G 5 90° 21% - - 44° 91.7° 75.8° - - -
6/21 8:30am 268 2 G 4 91° 20% - - 44° 91.7° 75.8° - - -
6/21 8:20am 119 1 G 3 90° 18% - - 41° 91.2° 75.8° - - -
6/21 8:10am 47 2 G 4 89° 19% - - 42° 90.1° 75.8° - - -
6/21 8:00am 106 2 G 3 87° 23% - - 45° 88.7° 75.8° - - -
6/21 7:50am 102 2 G 3 86° 25% - - 46° 87° 75.8° - - -
6/21 7:40am 110 2 G 3 84° 25% - - 45° 85.4° 75.8° - - -
6/21 7:30am 118 2 G 2 83° 25% - - 44° 84.3° 75.8° - - -
6/21 7:20am 105 2 G 2 83° 24% - - 42° 84.3° 75.8° - - -
6/21 7:10am 102 2 G 2 82° 23% - - 41° 84.3° 75.8° - - -
6/21 7:00am 88 2 G 2 82° 23% - - 40° 84.3° 75.8° - - -
6/21 6:50am 77 2 G 3 82° 24% - - 41° 84.3° 75.8° - - -
6/21 6:40am 89 2 G 3 82° 21% - - 38° 84.3° 75.8° - - -
6/21 6:30am 79 3 G 4 82° 21% - - 38° 84.3° 75.8° - - -
6/21 6:20am 73 3 G 4 83° 19% - - 37° 84.3° 75.8° - - -
6/21 6:10am 74 3 G 4 82° 20% - - 37° 83.9° 75.8° - - -
6/21 6:00am 59 3 G 5 83° 20% - - 37° 83.9° 75.8° - - -
6/21 5:50am 54 3 G 5 82° 21% - - 38° 83.7° 75.8° - - -
6/21 5:40am 61 3 G 5 80° 23% - - 39° 83.7° 75.8° - - -
6/21 5:30am 99 3 G 4 80° 23% - - 40° 83.7° 75.8° - - -
6/21 5:20am 75 3 G 4 79° 25% - - 40° 83.7° 75.8° - - -
6/21 5:10am 93 3 G 4 80° 25% - - 41° 83.7° 75.8° - - -
6/21 5:00am 65 3 G 4 81° 25% - - 42° 83.7° 75.8° - - -
6/21 4:50am 77 3 G 4 81° 26% - - 43° 83.7° 75.8° - - -
6/21 4:40am 49 3 G 5 82° 25% - - 43° 83.7° 75.8° - - -
6/21 4:30am 66 4 G 5 79° 29% - - 44° 81.8° 75.8° - - -
6/21 4:20am 69 3 G 5 80° 29% - - 45° 81.8° 75.8° - - -
6/21 4:10am 61 4 G 6 78° 33% - - 46° 81.8° 75.8° - - -
6/21 4:00am 82 3 G 4 78° 34% - - 48° 81.8° 75.8° - - -
6/21 3:50am 81 3 G 4 78° 35% - - 48° 81.8° 75.8° - - -
6/21 3:40am 81 3 G 4 78° 34% - - 48° 81.8° 75.8° - - -
6/21 3:30am 87 3 G 4 79° 34% - - 48° 81.8° 75.8° - - -
6/21 3:20am 84 3 G 4 79° 34% - - 48° 81.8° 75.8° - - -
6/21 3:10am 67 3 G 4 79° 34% - - 48° 81.8° 75.8° - - -
6/21 3:00am 77 4 G 4 80° 34% - - 49° 81.8° 75.8° - - -
6/21 2:50am 64 4 G 5 80° 35% - - 49° 81.8° 75.8° - - -
6/21 2:40am 82 3 G 4 78° 37% - - 50° 81.8° 75.8° - - -
6/21 2:30am 64 4 G 5 80° 35% - - 50° 81.8° 75.8° - - -
6/21 2:20am 88 3 G 5 77° 39% - - 50° 81.6° 75.8° - - -
6/21 2:10am 96 3 G 4 77° 40% - - 51° 81.6° 75.8° - - -
6/21 2:00am 99 2 G 3 79° 38% - - 51° 81.6° 77.9° - - -
6/21 1:50am 90 2 G 3 79° 37% - - 51° 81.6° 77.9° - - -
6/21 1:40am 78 3 G 4 79° 38% - - 52° 81.6° 77.9° - - -
6/21 1:30am 75 3 G 4 80° 38% - - 52° 81.6° 77.9° - - -
6/21 1:20am 56 3 G 5 80° 38% - - 52° 81.6° 77.9° - - -
6/21 1:10am 70 3 G 4 79° 40% - - 52° 81.6° 77.9° - - -
6/21 1:00am 67 3 G 4 81° 38% - - 52° 81.6° 77.9° - - -
6/21 12:50am 64 2 G 3 80° 38% - - 53° 81.1° 77.9° - - -
6/21 12:40am 82 3 G 3 80° 39% - - 53° 80.6° 77.9° - - -
6/21 12:30am 94 2 G 2 80° 40% - - 53° 80.6° 77.9° - - -
6/21 12:20am 94 2 G 3 79° 41% - - 53° 80.1° 77.9° - - -
6/21 12:10am 100 2 G 4 79° 42% - - 53° 79.6° 77.9° - - -
6/21 12:00am 97 2 G 3 79° 41% - - 54° 98.6° 73.8° - - -
6/20 11:50pm 80 3 G 3 81° 39% - - 54° 98.6° 73.8° - - -
6/20 11:40pm 66 3 G 4 80° 40% - - 54° 98.6° 73.8° - - -
6/20 11:30pm 73 3 G 4 81° 39% - - 54° 98.6° 73.8° - - -
6/20 11:20pm 55 4 G 5 80° 40% - - 54° 98.6° 73.8° - - -
6/20 11:10pm 91 3 G 4 80° 40% - - 54° 98.6° 73.8° - - -
6/20 11:00pm 69 3 G 4 81° 40% - - 54° 98.6° 73.8° - - -
6/20 10:50pm 77 3 G 4 81° 38% - - 54° 98.6° 73.8° - - -
6/20 10:40pm 45 3 G 4 82° 38% - - 54° 98.6° 73.8° - - -
6/20 10:30pm 65 3 G 4 81° 39% - - 54° 98.6° 73.8° - - -
6/20 10:20pm 74 2 G 4 81° 39% - - 53° 98.6° 73.8° - - -
6/20 10:10pm 74 2 G 4 82° 38% - - 54° 98.6° 73.8° - - -
6/20 10:00pm 47 3 G 4 82° 38% - - 54° 98.6° 73.8° - - -
6/20 9:50pm 50 3 G 5 82° 39% - - 54° 98.6° 73.8° - - -
6/20 9:40pm 62 3 G 4 82° 39% - - 54° 98.6° 73.8° - - -
6/20 9:30pm 53 3 G 4 83° 38% - - 54° 98.6° 73.8° - - -
6/20 9:20pm 42 3 G 4 83° 38% - - 55° 98.6° 73.8° - - -
6/20 9:10pm 52 3 G 3 83° 37% - - 54° 98.6° 73.8° - - -
6/20 9:00pm 46 3 G 4 82° 38% - - 54° 98.6° 73.8° - - -
6/20 8:50pm 64 3 G 4 82° 38% - - 54° 98.6° 73.8° - - -
6/20 8:40pm 79 1 G 2 83° 37% - - 54° 98.6° 73.8° - - -
6/20 8:30pm 132 1 G 2 83° 37% - - 54° 98.6° 73.8° - - -
6/20 8:20pm 275 1 G 3 83° 37% - - 54° 98.6° 73.8° - - -
6/20 8:10pm 249 1 G 2 84° 37% - - 54° 98.6° 73.8° - - -
6/20 8:00pm 249 1 G 2 84° 36% - - 55° 98.6° 73.8° - - -
6/20 7:50pm 250 2 G 4 85° 36% - - 55° 98.6° 73.8° - - -
6/20 7:40pm 243 2 G 4 86° 35% - - 55° 98.6° 73.8° - - -
6/20 7:30pm 229 2 G 4 86° 34% - - 55° 98.6° 73.8° - - -
6/20 7:20pm 220 3 G 5 87° 33% - - 55° 98.6° 73.8° - - -
6/20 7:10pm 224 3 G 5 88° 33% - - 56° 98.6° 73.8° - - -
6/20 7:00pm 258 4 G 6 88° 33% - - 56° 98.6° 73.8° - - -
6/20 6:50pm 259 4 G 6 89° 33% - - 56° 98.6° 73.8° - - -
6/20 6:40pm 255 5 G 9 89° 32% - - 56° 98.6° 73.8° - - -
6/20 6:30pm 253 5 G 8 89° 32% - - 56° 98.6° 73.8° - - -
6/20 6:20pm 267 6 G 9 90° 32% - - 56° 98.6° 73.8° - - -
6/20 6:10pm 258 6 G 9 90° 32% - - 56° 98.6° 73.8° - - -
6/20 6:00pm 273 6 G 11 91° 32% - - 57° 98.6° 73.8° - - -